sensor_id;sensor_type;location;lat;lon;timestamp;P1;durP1;ratioP1;P2;durP2;ratioP2
12715;SDS011;6422;49.938;9.124;2022-08-21T00:00:04;10.83;;;2.73;;
12715;SDS011;6422;49.938;9.124;2022-08-21T00:02:29;16.00;;;3.60;;
12715;SDS011;6422;49.938;9.124;2022-08-21T00:04:54;14.87;;;4.20;;
12715;SDS011;6422;49.938;9.124;2022-08-21T00:07:20;13.27;;;3.20;;
12715;SDS011;6422;49.938;9.124;2022-08-21T00:09:45;12.27;;;3.80;;
12715;SDS011;6422;49.938;9.124;2022-08-21T00:12:11;11.80;;;3.27;;
12715;SDS011;6422;49.938;9.124;2022-08-21T00:14:36;26.07;;;3.80;;
12715;SDS011;6422;49.938;9.124;2022-08-21T00:17:02;11.90;;;3.50;;
12715;SDS011;6422;49.938;9.124;2022-08-21T00:19:28;12.40;;;3.20;;
12715;SDS011;6422;49.938;9.124;2022-08-21T00:21:54;14.30;;;3.20;;
12715;SDS011;6422;49.938;9.124;2022-08-21T00:24:20;12.37;;;3.47;;
12715;SDS011;6422;49.938;9.124;2022-08-21T00:26:46;16.10;;;3.70;;
12715;SDS011;6422;49.938;9.124;2022-08-21T00:29:11;24.63;;;3.70;;
12715;SDS011;6422;49.938;9.124;2022-08-21T00:31:36;19.87;;;4.07;;
12715;SDS011;6422;49.938;9.124;2022-08-21T00:34:02;13.20;;;3.60;;
12715;SDS011;6422;49.938;9.124;2022-08-21T00:36:27;11.97;;;3.97;;
12715;SDS011;6422;49.938;9.124;2022-08-21T00:38:52;10.30;;;2.80;;
12715;SDS011;6422;49.938;9.124;2022-08-21T00:41:18;14.02;;;4.60;;
12715;SDS011;6422;49.938;9.124;2022-08-21T00:43:43;11.03;;;3.03;;
12715;SDS011;6422;49.938;9.124;2022-08-21T00:46:08;11.17;;;3.33;;
12715;SDS011;6422;49.938;9.124;2022-08-21T00:48:33;12.10;;;2.90;;
12715;SDS011;6422;49.938;9.124;2022-08-21T00:53:30;11.63;;;3.03;;
12715;SDS011;6422;49.938;9.124;2022-08-21T00:55:57;12.60;;;3.47;;
12715;SDS011;6422;49.938;9.124;2022-08-21T00:58:24;13.10;;;3.13;;
12715;SDS011;6422;49.938;9.124;2022-08-21T01:00:51;12.83;;;4.30;;
12715;SDS011;6422;49.938;9.124;2022-08-21T01:03:19;12.67;;;3.23;;
12715;SDS011;6422;49.938;9.124;2022-08-21T01:05:45;15.20;;;3.97;;
12715;SDS011;6422;49.938;9.124;2022-08-21T01:08:10;13.00;;;3.87;;
12715;SDS011;6422;49.938;9.124;2022-08-21T01:10:36;11.50;;;3.77;;
12715;SDS011;6422;49.938;9.124;2022-08-21T01:13:02;10.10;;;3.03;;
12715;SDS011;6422;49.938;9.124;2022-08-21T01:15:29;11.27;;;3.30;;
12715;SDS011;6422;49.938;9.124;2022-08-21T01:17:55;13.33;;;3.93;;
12715;SDS011;6422;49.938;9.124;2022-08-21T01:20:20;12.60;;;2.60;;
12715;SDS011;6422;49.938;9.124;2022-08-21T01:22:46;15.47;;;3.60;;
12715;SDS011;6422;49.938;9.124;2022-08-21T01:25:11;14.63;;;4.05;;
12715;SDS011;6422;49.938;9.124;2022-08-21T01:27:37;11.53;;;2.97;;
12715;SDS011;6422;49.938;9.124;2022-08-21T01:30:10;12.50;;;2.90;;
12715;SDS011;6422;49.938;9.124;2022-08-21T01:32:36;28.50;;;3.57;;
12715;SDS011;6422;49.938;9.124;2022-08-21T01:35:02;10.70;;;3.03;;
12715;SDS011;6422;49.938;9.124;2022-08-21T01:37:27;13.30;;;3.40;;
12715;SDS011;6422;49.938;9.124;2022-08-21T01:39:53;12.27;;;3.58;;
12715;SDS011;6422;49.938;9.124;2022-08-21T01:42:18;11.80;;;3.67;;
12715;SDS011;6422;49.938;9.124;2022-08-21T01:44:43;30.83;;;3.20;;
12715;SDS011;6422;49.938;9.124;2022-08-21T01:47:09;17.03;;;3.77;;
12715;SDS011;6422;49.938;9.124;2022-08-21T01:49:35;11.10;;;3.13;;
12715;SDS011;6422;49.938;9.124;2022-08-21T01:52:01;15.97;;;3.77;;
12715;SDS011;6422;49.938;9.124;2022-08-21T01:54:26;10.67;;;3.00;;
12715;SDS011;6422;49.938;9.124;2022-08-21T01:56:52;14.80;;;3.40;;
12715;SDS011;6422;49.938;9.124;2022-08-21T01:59:18;10.67;;;3.37;;
12715;SDS011;6422;49.938;9.124;2022-08-21T02:01:43;11.10;;;2.80;;
12715;SDS011;6422;49.938;9.124;2022-08-21T02:04:09;13.25;;;3.45;;
12715;SDS011;6422;49.938;9.124;2022-08-21T02:06:34;12.67;;;3.77;;
12715;SDS011;6422;49.938;9.124;2022-08-21T02:09:00;11.80;;;3.83;;
12715;SDS011;6422;49.938;9.124;2022-08-21T02:11:25;12.23;;;3.20;;
12715;SDS011;6422;49.938;9.124;2022-08-21T02:13:50;12.20;;;3.70;;
12715;SDS011;6422;49.938;9.124;2022-08-21T02:16:16;14.90;;;3.63;;
12715;SDS011;6422;49.938;9.124;2022-08-21T02:18:41;12.17;;;3.43;;
12715;SDS011;6422;49.938;9.124;2022-08-21T02:21:06;11.23;;;3.47;;
12715;SDS011;6422;49.938;9.124;2022-08-21T02:23:31;13.10;;;3.63;;
12715;SDS011;6422;49.938;9.124;2022-08-21T02:25:57;12.33;;;3.50;;
12715;SDS011;6422;49.938;9.124;2022-08-21T02:28:23;12.57;;;3.37;;
12715;SDS011;6422;49.938;9.124;2022-08-21T02:30:48;13.97;;;3.73;;
12715;SDS011;6422;49.938;9.124;2022-08-21T02:33:14;13.23;;;3.27;;
12715;SDS011;6422;49.938;9.124;2022-08-21T02:35:40;18.80;;;3.20;;
12715;SDS011;6422;49.938;9.124;2022-08-21T02:38:07;12.10;;;3.20;;
12715;SDS011;6422;49.938;9.124;2022-08-21T02:40:34;12.87;;;3.00;;
12715;SDS011;6422;49.938;9.124;2022-08-21T02:43:00;15.63;;;3.80;;
12715;SDS011;6422;49.938;9.124;2022-08-21T02:45:26;26.97;;;3.37;;
12715;SDS011;6422;49.938;9.124;2022-08-21T02:47:54;12.37;;;3.30;;
12715;SDS011;6422;49.938;9.124;2022-08-21T02:50:22;19.00;;;4.13;;
12715;SDS011;6422;49.938;9.124;2022-08-21T02:52:47;11.07;;;3.53;;
12715;SDS011;6422;49.938;9.124;2022-08-21T02:55:13;14.10;;;3.20;;
12715;SDS011;6422;49.938;9.124;2022-08-21T02:57:38;16.30;;;3.67;;
12715;SDS011;6422;49.938;9.124;2022-08-21T03:00:04;14.13;;;3.00;;
12715;SDS011;6422;49.938;9.124;2022-08-21T03:02:29;13.70;;;3.70;;
12715;SDS011;6422;49.938;9.124;2022-08-21T03:04:55;17.23;;;4.10;;
12715;SDS011;6422;49.938;9.124;2022-08-21T03:07:20;14.97;;;3.70;;
12715;SDS011;6422;49.938;9.124;2022-08-21T03:09:46;18.80;;;4.43;;
12715;SDS011;6422;49.938;9.124;2022-08-21T03:12:11;12.33;;;4.43;;
12715;SDS011;6422;49.938;9.124;2022-08-21T03:14:36;16.50;;;4.22;;
12715;SDS011;6422;49.938;9.124;2022-08-21T03:17:03;13.33;;;3.83;;
12715;SDS011;6422;49.938;9.124;2022-08-21T03:19:28;12.60;;;3.77;;
12715;SDS011;6422;49.938;9.124;2022-08-21T03:21:53;11.13;;;2.57;;
12715;SDS011;6422;49.938;9.124;2022-08-21T03:24:18;12.68;;;3.92;;
12715;SDS011;6422;49.938;9.124;2022-08-21T03:26:44;11.37;;;2.93;;
12715;SDS011;6422;49.938;9.124;2022-08-21T03:29:09;12.70;;;3.00;;
12715;SDS011;6422;49.938;9.124;2022-08-21T03:31:34;14.60;;;3.00;;
12715;SDS011;6422;49.938;9.124;2022-08-21T03:33:59;12.90;;;3.37;;
12715;SDS011;6422;49.938;9.124;2022-08-21T03:36:24;11.40;;;3.47;;
12715;SDS011;6422;49.938;9.124;2022-08-21T03:38:50;13.50;;;4.03;;
12715;SDS011;6422;49.938;9.124;2022-08-21T03:41:15;12.83;;;3.53;;
12715;SDS011;6422;49.938;9.124;2022-08-21T03:43:40;13.77;;;3.47;;
12715;SDS011;6422;49.938;9.124;2022-08-21T03:46:06;12.97;;;3.53;;
12715;SDS011;6422;49.938;9.124;2022-08-21T03:48:31;14.77;;;3.53;;
12715;SDS011;6422;49.938;9.124;2022-08-21T03:50:57;12.70;;;3.13;;
12715;SDS011;6422;49.938;9.124;2022-08-21T03:53:22;13.23;;;3.60;;
12715;SDS011;6422;49.938;9.124;2022-08-21T03:55:49;13.80;;;4.20;;
12715;SDS011;6422;49.938;9.124;2022-08-21T03:58:15;11.47;;;3.13;;
12715;SDS011;6422;49.938;9.124;2022-08-21T04:00:40;23.57;;;4.10;;
12715;SDS011;6422;49.938;9.124;2022-08-21T04:03:06;13.67;;;3.90;;
12715;SDS011;6422;49.938;9.124;2022-08-21T04:05:31;11.33;;;4.20;;
12715;SDS011;6422;49.938;9.124;2022-08-21T04:07:58;18.50;;;3.50;;
12715;SDS011;6422;49.938;9.124;2022-08-21T04:10:23;11.47;;;3.10;;
12715;SDS011;6422;49.938;9.124;2022-08-21T04:12:49;14.00;;;3.30;;
12715;SDS011;6422;49.938;9.124;2022-08-21T04:15:15;12.10;;;3.50;;
12715;SDS011;6422;49.938;9.124;2022-08-21T04:17:41;14.60;;;4.00;;
12715;SDS011;6422;49.938;9.124;2022-08-21T04:20:06;12.73;;;3.30;;
12715;SDS011;6422;49.938;9.124;2022-08-21T04:22:31;19.83;;;3.93;;
12715;SDS011;6422;49.938;9.124;2022-08-21T04:24:56;14.23;;;2.87;;
12715;SDS011;6422;49.938;9.124;2022-08-21T04:27:22;14.40;;;3.63;;
12715;SDS011;6422;49.938;9.124;2022-08-21T04:29:47;17.50;;;4.30;;
12715;SDS011;6422;49.938;9.124;2022-08-21T04:32:12;20.20;;;3.07;;
12715;SDS011;6422;49.938;9.124;2022-08-21T04:34:37;12.73;;;3.38;;
12715;SDS011;6422;49.938;9.124;2022-08-21T04:37:03;13.33;;;3.47;;
12715;SDS011;6422;49.938;9.124;2022-08-21T04:39:28;16.33;;;4.17;;
12715;SDS011;6422;49.938;9.124;2022-08-21T04:41:53;11.10;;;3.27;;
12715;SDS011;6422;49.938;9.124;2022-08-21T04:44:18;13.65;;;3.40;;
12715;SDS011;6422;49.938;9.124;2022-08-21T04:46:44;21.63;;;4.30;;
12715;SDS011;6422;49.938;9.124;2022-08-21T04:49:09;19.27;;;3.20;;
12715;SDS011;6422;49.938;9.124;2022-08-21T04:51:35;17.10;;;4.77;;
12715;SDS011;6422;49.938;9.124;2022-08-21T04:54:17;14.30;;;3.37;;
12715;SDS011;6422;49.938;9.124;2022-08-21T04:56:49;14.07;;;4.00;;
12715;SDS011;6422;49.938;9.124;2022-08-21T04:59:18;19.37;;;4.33;;
12715;SDS011;6422;49.938;9.124;2022-08-21T05:01:45;11.60;;;3.63;;
12715;SDS011;6422;49.938;9.124;2022-08-21T05:04:11;11.47;;;3.80;;
12715;SDS011;6422;49.938;9.124;2022-08-21T05:06:37;12.10;;;3.13;;
12715;SDS011;6422;49.938;9.124;2022-08-21T05:09:04;12.50;;;3.33;;
12715;SDS011;6422;49.938;9.124;2022-08-21T05:11:30;12.63;;;3.13;;
12715;SDS011;6422;49.938;9.124;2022-08-21T05:13:56;12.90;;;3.23;;
12715;SDS011;6422;49.938;9.124;2022-08-21T05:16:21;17.00;;;4.30;;
12715;SDS011;6422;49.938;9.124;2022-08-21T05:18:46;12.15;;;3.72;;
12715;SDS011;6422;49.938;9.124;2022-08-21T05:21:11;15.10;;;3.25;;
12715;SDS011;6422;49.938;9.124;2022-08-21T05:23:36;10.30;;;3.27;;
12715;SDS011;6422;49.938;9.124;2022-08-21T05:26:02;11.30;;;3.10;;
12715;SDS011;6422;49.938;9.124;2022-08-21T05:28:29;18.10;;;3.37;;
12715;SDS011;6422;49.938;9.124;2022-08-21T05:30:55;11.43;;;3.20;;
12715;SDS011;6422;49.938;9.124;2022-08-21T05:33:20;11.27;;;3.13;;
12715;SDS011;6422;49.938;9.124;2022-08-21T05:35:48;14.83;;;3.60;;
12715;SDS011;6422;49.938;9.124;2022-08-21T05:38:14;15.47;;;4.17;;
12715;SDS011;6422;49.938;9.124;2022-08-21T05:40:39;15.03;;;4.10;;
12715;SDS011;6422;49.938;9.124;2022-08-21T05:43:04;11.75;;;3.45;;
12715;SDS011;6422;49.938;9.124;2022-08-21T05:45:31;13.83;;;3.47;;
12715;SDS011;6422;49.938;9.124;2022-08-21T05:47:56;27.50;;;5.60;;
12715;SDS011;6422;49.938;9.124;2022-08-21T05:50:21;12.87;;;4.00;;
12715;SDS011;6422;49.938;9.124;2022-08-21T05:52:47;15.33;;;4.27;;
12715;SDS011;6422;49.938;9.124;2022-08-21T05:55:12;16.52;;;4.40;;
12715;SDS011;6422;49.938;9.124;2022-08-21T05:57:37;10.03;;;3.70;;
12715;SDS011;6422;49.938;9.124;2022-08-21T06:00:05;12.17;;;3.43;;
12715;SDS011;6422;49.938;9.124;2022-08-21T06:02:34;11.97;;;4.00;;
12715;SDS011;6422;49.938;9.124;2022-08-21T06:04:59;15.50;;;3.77;;
12715;SDS011;6422;49.938;9.124;2022-08-21T06:07:25;15.17;;;4.63;;
12715;SDS011;6422;49.938;9.124;2022-08-21T06:09:50;11.43;;;3.67;;
12715;SDS011;6422;49.938;9.124;2022-08-21T06:12:15;14.70;;;4.83;;
12715;SDS011;6422;49.938;9.124;2022-08-21T06:14:42;13.70;;;3.90;;
12715;SDS011;6422;49.938;9.124;2022-08-21T06:17:08;13.10;;;3.23;;
12715;SDS011;6422;49.938;9.124;2022-08-21T06:19:33;13.93;;;3.63;;
12715;SDS011;6422;49.938;9.124;2022-08-21T06:21:59;13.33;;;4.00;;
12715;SDS011;6422;49.938;9.124;2022-08-21T06:24:24;13.50;;;3.93;;
12715;SDS011;6422;49.938;9.124;2022-08-21T06:26:49;12.00;;;3.97;;
12715;SDS011;6422;49.938;9.124;2022-08-21T06:29:14;16.23;;;3.90;;
12715;SDS011;6422;49.938;9.124;2022-08-21T06:31:44;11.23;;;3.03;;
12715;SDS011;6422;49.938;9.124;2022-08-21T06:34:09;15.80;;;4.03;;
12715;SDS011;6422;49.938;9.124;2022-08-21T06:36:35;11.73;;;3.50;;
12715;SDS011;6422;49.938;9.124;2022-08-21T06:39:01;14.20;;;4.73;;
12715;SDS011;6422;49.938;9.124;2022-08-21T06:41:26;10.57;;;3.83;;
12715;SDS011;6422;49.938;9.124;2022-08-21T06:43:51;16.57;;;4.63;;
12715;SDS011;6422;49.938;9.124;2022-08-21T06:46:17;13.47;;;3.83;;
12715;SDS011;6422;49.938;9.124;2022-08-21T06:48:42;12.83;;;3.87;;
12715;SDS011;6422;49.938;9.124;2022-08-21T06:51:07;13.00;;;4.00;;
12715;SDS011;6422;49.938;9.124;2022-08-21T06:53:32;16.03;;;4.27;;
12715;SDS011;6422;49.938;9.124;2022-08-21T06:55:58;13.77;;;3.80;;
12715;SDS011;6422;49.938;9.124;2022-08-21T06:58:23;14.93;;;4.03;;
12715;SDS011;6422;49.938;9.124;2022-08-21T07:00:49;17.43;;;5.33;;
12715;SDS011;6422;49.938;9.124;2022-08-21T07:03:17;11.80;;;3.30;;
12715;SDS011;6422;49.938;9.124;2022-08-21T07:05:42;13.70;;;4.30;;
12715;SDS011;6422;49.938;9.124;2022-08-21T07:08:07;12.83;;;3.80;;
12715;SDS011;6422;49.938;9.124;2022-08-21T07:10:32;14.02;;;4.82;;
12715;SDS011;6422;49.938;9.124;2022-08-21T07:12:58;14.67;;;4.50;;
12715;SDS011;6422;49.938;9.124;2022-08-21T07:15:23;13.57;;;4.13;;
12715;SDS011;6422;49.938;9.124;2022-08-21T07:17:48;17.47;;;3.70;;
12715;SDS011;6422;49.938;9.124;2022-08-21T07:20:13;12.90;;;4.07;;
12715;SDS011;6422;49.938;9.124;2022-08-21T07:22:38;12.03;;;4.10;;
12715;SDS011;6422;49.938;9.124;2022-08-21T07:25:05;11.87;;;3.73;;
12715;SDS011;6422;49.938;9.124;2022-08-21T07:27:30;18.10;;;5.37;;
12715;SDS011;6422;49.938;9.124;2022-08-21T07:29:56;17.87;;;4.83;;
12715;SDS011;6422;49.938;9.124;2022-08-21T07:32:21;13.43;;;5.30;;
12715;SDS011;6422;49.938;9.124;2022-08-21T07:34:46;16.30;;;5.37;;
12715;SDS011;6422;49.938;9.124;2022-08-21T07:37:12;13.57;;;4.13;;
12715;SDS011;6422;49.938;9.124;2022-08-21T07:39:37;13.20;;;4.93;;
12715;SDS011;6422;49.938;9.124;2022-08-21T07:42:02;18.60;;;4.97;;
12715;SDS011;6422;49.938;9.124;2022-08-21T07:44:28;15.57;;;5.70;;
12715;SDS011;6422;49.938;9.124;2022-08-21T07:46:53;20.93;;;5.70;;
12715;SDS011;6422;49.938;9.124;2022-08-21T07:49:18;19.73;;;5.90;;
12715;SDS011;6422;49.938;9.124;2022-08-21T07:51:43;19.50;;;5.38;;
12715;SDS011;6422;49.938;9.124;2022-08-21T07:54:08;15.20;;;4.97;;
12715;SDS011;6422;49.938;9.124;2022-08-21T07:56:34;12.85;;;4.15;;
12715;SDS011;6422;49.938;9.124;2022-08-21T07:58:59;13.93;;;5.50;;
12715;SDS011;6422;49.938;9.124;2022-08-21T08:01:24;16.70;;;4.87;;
12715;SDS011;6422;49.938;9.124;2022-08-21T08:03:49;14.73;;;5.40;;
12715;SDS011;6422;49.938;9.124;2022-08-21T08:06:15;14.17;;;5.57;;
12715;SDS011;6422;49.938;9.124;2022-08-21T08:08:43;16.40;;;5.40;;
12715;SDS011;6422;49.938;9.124;2022-08-21T08:11:08;14.27;;;4.70;;
12715;SDS011;6422;49.938;9.124;2022-08-21T08:13:47;13.83;;;5.23;;
12715;SDS011;6422;49.938;9.124;2022-08-21T08:16:13;13.20;;;4.77;;
12715;SDS011;6422;49.938;9.124;2022-08-21T08:18:38;16.57;;;6.10;;
12715;SDS011;6422;49.938;9.124;2022-08-21T08:21:04;14.13;;;5.50;;
12715;SDS011;6422;49.938;9.124;2022-08-21T08:23:30;16.50;;;6.00;;
12715;SDS011;6422;49.938;9.124;2022-08-21T08:25:56;14.90;;;5.33;;
12715;SDS011;6422;49.938;9.124;2022-08-21T08:28:21;15.03;;;5.30;;
12715;SDS011;6422;49.938;9.124;2022-08-21T08:30:46;15.10;;;6.20;;
12715;SDS011;6422;49.938;9.124;2022-08-21T08:33:12;14.60;;;5.63;;
12715;SDS011;6422;49.938;9.124;2022-08-21T08:35:37;15.90;;;5.20;;
12715;SDS011;6422;49.938;9.124;2022-08-21T08:38:03;18.00;;;6.50;;
12715;SDS011;6422;49.938;9.124;2022-08-21T08:42:54;26.07;;;5.63;;
12715;SDS011;6422;49.938;9.124;2022-08-21T08:45:20;15.30;;;6.00;;
12715;SDS011;6422;49.938;9.124;2022-08-21T08:47:48;17.63;;;6.80;;
12715;SDS011;6422;49.938;9.124;2022-08-21T08:50:21;22.50;;;6.03;;
12715;SDS011;6422;49.938;9.124;2022-08-21T08:52:49;13.73;;;5.67;;
12715;SDS011;6422;49.938;9.124;2022-08-21T08:55:17;15.93;;;6.67;;
12715;SDS011;6422;49.938;9.124;2022-08-21T08:57:45;15.03;;;6.27;;
12715;SDS011;6422;49.938;9.124;2022-08-21T09:00:13;13.40;;;5.90;;
12715;SDS011;6422;49.938;9.124;2022-08-21T09:02:38;12.60;;;5.20;;
12715;SDS011;6422;49.938;9.124;2022-08-21T09:05:05;11.37;;;5.33;;
12715;SDS011;6422;49.938;9.124;2022-08-21T09:07:47;14.67;;;5.70;;
12715;SDS011;6422;49.938;9.124;2022-08-21T09:13:02;14.20;;;6.93;;
12715;SDS011;6422;49.938;9.124;2022-08-21T09:18:16;11.97;;;5.20;;
12715;SDS011;6422;49.938;9.124;2022-08-21T09:20:55;14.63;;;5.40;;
12715;SDS011;6422;49.938;9.124;2022-08-21T09:28:34;17.77;;;6.27;;
12715;SDS011;6422;49.938;9.124;2022-08-21T09:31:00;17.70;;;6.00;;
12715;SDS011;6422;49.938;9.124;2022-08-21T09:33:27;20.00;;;4.93;;
12715;SDS011;6422;49.938;9.124;2022-08-21T09:35:53;14.07;;;6.60;;
12715;SDS011;6422;49.938;9.124;2022-08-21T09:38:29;19.47;;;6.53;;
12715;SDS011;6422;49.938;9.124;2022-08-21T09:41:02;16.23;;;6.63;;
12715;SDS011;6422;49.938;9.124;2022-08-21T09:43:28;16.37;;;6.23;;
12715;SDS011;6422;49.938;9.124;2022-08-21T09:46:07;16.20;;;5.97;;
12715;SDS011;6422;49.938;9.124;2022-08-21T09:48:54;13.57;;;5.97;;
12715;SDS011;6422;49.938;9.124;2022-08-21T09:51:20;13.87;;;5.30;;
12715;SDS011;6422;49.938;9.124;2022-08-21T09:53:47;13.23;;;5.50;;
12715;SDS011;6422;49.938;9.124;2022-08-21T09:56:17;14.50;;;6.00;;
12715;SDS011;6422;49.938;9.124;2022-08-21T09:59:11;14.83;;;5.07;;
12715;SDS011;6422;49.938;9.124;2022-08-21T10:01:41;13.70;;;5.40;;
12715;SDS011;6422;49.938;9.124;2022-08-21T10:04:07;13.87;;;5.10;;
12715;SDS011;6422;49.938;9.124;2022-08-21T10:06:33;13.77;;;5.60;;
12715;SDS011;6422;49.938;9.124;2022-08-21T10:09:07;13.17;;;4.57;;
12715;SDS011;6422;49.938;9.124;2022-08-21T10:11:33;18.40;;;6.40;;
12715;SDS011;6422;49.938;9.124;2022-08-21T10:21:59;12.27;;;4.43;;
12715;SDS011;6422;49.938;9.124;2022-08-21T10:26:56;16.93;;;5.53;;
12715;SDS011;6422;49.938;9.124;2022-08-21T10:34:40;15.17;;;6.20;;
12715;SDS011;6422;49.938;9.124;2022-08-21T10:37:13;12.73;;;4.40;;
12715;SDS011;6422;49.938;9.124;2022-08-21T10:40:26;13.80;;;5.63;;
12715;SDS011;6422;49.938;9.124;2022-08-21T10:45:31;13.80;;;5.10;;
12715;SDS011;6422;49.938;9.124;2022-08-21T10:48:00;13.60;;;4.83;;
12715;SDS011;6422;49.938;9.124;2022-08-21T10:50:31;18.40;;;5.27;;
12715;SDS011;6422;49.938;9.124;2022-08-21T10:55:50;18.73;;;6.00;;
12715;SDS011;6422;49.938;9.124;2022-08-21T10:58:25;15.13;;;5.47;;
12715;SDS011;6422;49.938;9.124;2022-08-21T11:00:53;15.53;;;4.60;;
12715;SDS011;6422;49.938;9.124;2022-08-21T11:03:21;15.93;;;4.93;;
12715;SDS011;6422;49.938;9.124;2022-08-21T11:05:54;17.27;;;5.20;;
12715;SDS011;6422;49.938;9.124;2022-08-21T11:08:24;12.97;;;5.27;;
12715;SDS011;6422;49.938;9.124;2022-08-21T11:15:51;13.67;;;5.00;;
12715;SDS011;6422;49.938;9.124;2022-08-21T11:18:30;14.73;;;4.93;;
12715;SDS011;6422;49.938;9.124;2022-08-21T11:21:20;13.20;;;5.37;;
12715;SDS011;6422;49.938;9.124;2022-08-21T11:23:52;12.73;;;4.80;;
12715;SDS011;6422;49.938;9.124;2022-08-21T11:26:19;13.10;;;5.07;;
12715;SDS011;6422;49.938;9.124;2022-08-21T11:28:50;12.93;;;4.93;;
12715;SDS011;6422;49.938;9.124;2022-08-21T11:31:22;12.80;;;4.60;;
12715;SDS011;6422;49.938;9.124;2022-08-21T11:33:57;21.73;;;5.70;;
12715;SDS011;6422;49.938;9.124;2022-08-21T11:36:30;11.60;;;5.50;;
12715;SDS011;6422;49.938;9.124;2022-08-21T11:39:06;13.30;;;5.23;;
12715;SDS011;6422;49.938;9.124;2022-08-21T11:41:43;12.63;;;5.00;;
12715;SDS011;6422;49.938;9.124;2022-08-21T11:51:34;17.53;;;4.80;;
12715;SDS011;6422;49.938;9.124;2022-08-21T11:54:03;15.00;;;6.00;;
12715;SDS011;6422;49.938;9.124;2022-08-21T11:56:31;11.93;;;4.80;;
12715;SDS011;6422;49.938;9.124;2022-08-21T11:59:00;15.70;;;5.03;;
12715;SDS011;6422;49.938;9.124;2022-08-21T12:01:48;13.90;;;5.57;;
12715;SDS011;6422;49.938;9.124;2022-08-21T12:04:17;13.00;;;5.40;;
12715;SDS011;6422;49.938;9.124;2022-08-21T12:06:43;14.23;;;6.00;;
12715;SDS011;6422;49.938;9.124;2022-08-21T12:09:10;16.93;;;6.30;;
12715;SDS011;6422;49.938;9.124;2022-08-21T12:11:49;14.10;;;5.53;;
12715;SDS011;6422;49.938;9.124;2022-08-21T12:14:15;15.03;;;5.33;;
12715;SDS011;6422;49.938;9.124;2022-08-21T12:16:42;17.50;;;5.72;;
12715;SDS011;6422;49.938;9.124;2022-08-21T12:19:09;13.53;;;5.90;;
12715;SDS011;6422;49.938;9.124;2022-08-21T12:21:47;12.90;;;4.70;;
12715;SDS011;6422;49.938;9.124;2022-08-21T12:26:48;16.93;;;4.73;;
12715;SDS011;6422;49.938;9.124;2022-08-21T12:29:16;15.07;;;5.13;;
12715;SDS011;6422;49.938;9.124;2022-08-21T12:34:37;14.87;;;4.70;;
12715;SDS011;6422;49.938;9.124;2022-08-21T12:37:10;12.77;;;3.93;;
12715;SDS011;6422;49.938;9.124;2022-08-21T12:39:39;13.60;;;5.20;;
12715;SDS011;6422;49.938;9.124;2022-08-21T12:42:25;18.40;;;5.43;;
12715;SDS011;6422;49.938;9.124;2022-08-21T12:45:03;12.37;;;4.63;;
12715;SDS011;6422;49.938;9.124;2022-08-21T12:47:36;14.13;;;5.50;;
12715;SDS011;6422;49.938;9.124;2022-08-21T12:50:13;13.27;;;4.40;;
12715;SDS011;6422;49.938;9.124;2022-08-21T12:52:44;13.17;;;4.90;;
12715;SDS011;6422;49.938;9.124;2022-08-21T12:55:14;11.43;;;4.90;;
12715;SDS011;6422;49.938;9.124;2022-08-21T12:57:42;11.47;;;4.47;;
12715;SDS011;6422;49.938;9.124;2022-08-21T13:00:09;19.67;;;4.97;;
12715;SDS011;6422;49.938;9.124;2022-08-21T13:02:39;12.00;;;4.97;;
12715;SDS011;6422;49.938;9.124;2022-08-21T13:05:07;13.13;;;5.30;;
12715;SDS011;6422;49.938;9.124;2022-08-21T13:07:36;11.97;;;4.23;;
12715;SDS011;6422;49.938;9.124;2022-08-21T13:10:04;13.77;;;5.23;;
12715;SDS011;6422;49.938;9.124;2022-08-21T13:12:30;14.20;;;5.33;;
12715;SDS011;6422;49.938;9.124;2022-08-21T13:14:56;16.80;;;4.23;;
12715;SDS011;6422;49.938;9.124;2022-08-21T13:17:22;14.57;;;5.00;;
12715;SDS011;6422;49.938;9.124;2022-08-21T13:20:07;11.30;;;4.60;;
12715;SDS011;6422;49.938;9.124;2022-08-21T13:22:40;15.20;;;5.13;;
12715;SDS011;6422;49.938;9.124;2022-08-21T13:25:09;13.30;;;4.50;;
12715;SDS011;6422;49.938;9.124;2022-08-21T13:27:34;13.37;;;5.07;;
12715;SDS011;6422;49.938;9.124;2022-08-21T13:30:00;16.73;;;6.27;;
12715;SDS011;6422;49.938;9.124;2022-08-21T13:32:25;13.53;;;5.87;;
12715;SDS011;6422;49.938;9.124;2022-08-21T13:34:52;14.73;;;6.33;;
12715;SDS011;6422;49.938;9.124;2022-08-21T13:37:18;14.97;;;4.10;;
12715;SDS011;6422;49.938;9.124;2022-08-21T13:39:48;15.10;;;4.80;;
12715;SDS011;6422;49.938;9.124;2022-08-21T13:42:14;16.87;;;5.30;;
12715;SDS011;6422;49.938;9.124;2022-08-21T13:44:40;14.20;;;6.00;;
12715;SDS011;6422;49.938;9.124;2022-08-21T13:47:06;11.40;;;4.30;;
12715;SDS011;6422;49.938;9.124;2022-08-21T13:49:38;11.43;;;5.00;;
12715;SDS011;6422;49.938;9.124;2022-08-21T13:52:04;14.90;;;5.87;;
12715;SDS011;6422;49.938;9.124;2022-08-21T13:54:36;12.00;;;5.63;;
12715;SDS011;6422;49.938;9.124;2022-08-21T13:57:02;16.50;;;5.13;;
12715;SDS011;6422;49.938;9.124;2022-08-21T13:59:31;16.00;;;5.27;;
12715;SDS011;6422;49.938;9.124;2022-08-21T14:01:58;14.37;;;4.80;;
12715;SDS011;6422;49.938;9.124;2022-08-21T14:04:26;14.37;;;4.93;;
12715;SDS011;6422;49.938;9.124;2022-08-21T14:06:52;16.73;;;5.20;;
12715;SDS011;6422;49.938;9.124;2022-08-21T14:09:34;13.87;;;5.20;;
12715;SDS011;6422;49.938;9.124;2022-08-21T14:12:02;12.57;;;4.43;;
12715;SDS011;6422;49.938;9.124;2022-08-21T14:14:30;13.97;;;5.43;;
12715;SDS011;6422;49.938;9.124;2022-08-21T14:17:06;12.33;;;5.40;;
12715;SDS011;6422;49.938;9.124;2022-08-21T14:22:20;14.73;;;4.83;;
12715;SDS011;6422;49.938;9.124;2022-08-21T14:24:46;14.30;;;4.70;;
12715;SDS011;6422;49.938;9.124;2022-08-21T14:27:11;13.67;;;3.90;;
12715;SDS011;6422;49.938;9.124;2022-08-21T14:29:38;11.87;;;4.50;;
12715;SDS011;6422;49.938;9.124;2022-08-21T14:32:14;16.67;;;4.80;;
12715;SDS011;6422;49.938;9.124;2022-08-21T14:34:39;14.87;;;4.80;;
12715;SDS011;6422;49.938;9.124;2022-08-21T14:37:04;12.37;;;4.77;;
12715;SDS011;6422;49.938;9.124;2022-08-21T14:39:30;15.83;;;5.80;;
12715;SDS011;6422;49.938;9.124;2022-08-21T14:41:55;15.27;;;5.20;;
12715;SDS011;6422;49.938;9.124;2022-08-21T14:44:22;11.97;;;4.60;;
12715;SDS011;6422;49.938;9.124;2022-08-21T14:46:47;27.13;;;4.30;;
12715;SDS011;6422;49.938;9.124;2022-08-21T14:49:12;16.47;;;6.40;;
12715;SDS011;6422;49.938;9.124;2022-08-21T14:51:37;18.63;;;6.50;;
12715;SDS011;6422;49.938;9.124;2022-08-21T14:54:04;13.70;;;4.90;;
12715;SDS011;6422;49.938;9.124;2022-08-21T14:56:29;12.13;;;5.00;;
12715;SDS011;6422;49.938;9.124;2022-08-21T14:58:54;12.43;;;4.40;;
12715;SDS011;6422;49.938;9.124;2022-08-21T15:01:21;17.53;;;4.80;;
12715;SDS011;6422;49.938;9.124;2022-08-21T15:03:47;12.07;;;4.67;;
12715;SDS011;6422;49.938;9.124;2022-08-21T15:06:13;11.90;;;5.47;;
12715;SDS011;6422;49.938;9.124;2022-08-21T15:08:39;14.07;;;5.97;;
12715;SDS011;6422;49.938;9.124;2022-08-21T15:11:04;14.20;;;5.97;;
12715;SDS011;6422;49.938;9.124;2022-08-21T15:13:29;15.60;;;5.23;;
12715;SDS011;6422;49.938;9.124;2022-08-21T15:15:55;15.07;;;5.83;;
12715;SDS011;6422;49.938;9.124;2022-08-21T15:18:25;11.67;;;5.20;;
12715;SDS011;6422;49.938;9.124;2022-08-21T15:20:50;11.93;;;4.10;;
12715;SDS011;6422;49.938;9.124;2022-08-21T15:23:16;20.03;;;5.73;;
12715;SDS011;6422;49.938;9.124;2022-08-21T15:25:42;14.37;;;5.27;;
12715;SDS011;6422;49.938;9.124;2022-08-21T15:28:08;14.50;;;4.60;;
12715;SDS011;6422;49.938;9.124;2022-08-21T15:30:33;15.60;;;5.47;;
12715;SDS011;6422;49.938;9.124;2022-08-21T15:32:58;16.30;;;4.93;;
12715;SDS011;6422;49.938;9.124;2022-08-21T15:35:24;13.87;;;5.37;;
12715;SDS011;6422;49.938;9.124;2022-08-21T15:37:49;14.33;;;4.63;;
12715;SDS011;6422;49.938;9.124;2022-08-21T15:40:15;15.75;;;5.18;;
12715;SDS011;6422;49.938;9.124;2022-08-21T15:42:41;13.67;;;4.73;;
12715;SDS011;6422;49.938;9.124;2022-08-21T15:45:06;14.50;;;5.37;;